Météo Nord-Pas-de-Calais   La météo au plus près de chez vous

Station météorologique

Observations météo à Embrun (05046)

05046001 873 m Dernier relevé à 22:12
18.9°C
Humidité 50 % Vent 10.8 km/h

Journée consultée

Lundi 31 Août 2026

Synthèse de la journée

Périodes de référence en UTC

Température maximale

27.6°C

à 14:06

06h 06h

Température minimale

14.3°C

à 08:36

18h 18h

Rafale maximale

44 km/h

à 15:42

00h 00h

Précipitations

0.2 mm

Cumul quotidien

06h 06h

Ensoleillement

7h 0 mins

Durée quotidienne

00h 00h

Graphiques de la journée

Heure locale Réduire

Données détaillées

Relevés météo

Pas de 6 minutes Afficher les relevés infra-horaires
Relevés météo détaillés à Embrun pour le Lundi 31 Août 2026
Heure Température °C Point de rosée °C Humidité % Vent moyen (raf.), km/h Précipitations mm Température à 10 cm °C Température à 20 cm °C Température à 50 cm °C Température à 100 cm °C Ensoleillement min Rayonnement global W/m²
22:12 18.9 °C 10.2 °C 57 % 3 km/h (7 km/h) 0 mm0 mm 22.3 °C 21.7 °C 19.9 °C 19.5 °C 0 min 0 W/m²
22:06 19.1 °C 10.1 °C 56 % 4 km/h (10 km/h) 0 mm0 mm 22.4 °C 21.7 °C 19.9 °C 19.5 °C 0 min 0 W/m²
22:00 19.3 °C 10.6 °C 57 % 4 km/h (8 km/h) 0 mm0 mm 22.4 °C 21.7 °C 19.9 °C 19.5 °C 0 min 0 W/m²
21:54 19.7 °C 10.7 °C 56 % 4 km/h (11 km/h) 0 mm0 mm 22.4 °C 21.7 °C 19.9 °C 19.5 °C 0 min 0 W/m²
21:48 20.1 °C 10.5 °C 54 % 5 km/h (11 km/h) 0 mm0 mm 22.4 °C 21.7 °C 19.9 °C 19.5 °C 0 min 0 W/m²
21:42 20.4 °C 10.5 °C 53 % 6 km/h (12 km/h) 0 mm0 mm 22.5 °C 21.7 °C 19.9 °C 19.5 °C 0 min 0 W/m²
21:36 20.5 °C 10.6 °C 53 % 6 km/h (12 km/h) 0 mm0 mm 22.5 °C 21.7 °C 19.9 °C 19.5 °C 0 min 0 W/m²
21:30 20.7 °C 10.8 °C 53 % 5 km/h (12 km/h) 0 mm0 mm 22.5 °C 21.7 °C 19.9 °C 19.5 °C 0 min 0 W/m²
21:24 21.1 °C 10.6 °C 51 % 6 km/h (11 km/h) 0 mm0 mm 22.6 °C 21.7 °C 19.9 °C 19.5 °C 0 min 0 W/m²
21:18 21.4 °C 10.5 °C 50 % 9 km/h (15 km/h) 0 mm0 mm 22.6 °C 21.7 °C 19.9 °C 19.5 °C 0 min 0 W/m²
21:12 21.7 °C 10.8 °C 50 % 11 km/h (17 km/h) 0 mm0 mm 22.6 °C 21.7 °C 19.9 °C 19.5 °C 0 min 0 W/m²
21:06 21.8 °C 10.6 °C 49 % 11 km/h (19 km/h) 0 mm0 mm 22.6 °C 21.7 °C 19.9 °C 19.5 °C 0 min 0 W/m²
21:00 21.7 °C 10.8 °C 50 % 11 km/h (20 km/h) 0 mm0 mm 22.7 °C 21.7 °C 19.9 °C 19.5 °C 0 min 0 W/m²
20:54 21.6 °C 10.7 °C 50 % 10 km/h (18 km/h) 0 mm0 mm 22.7 °C 21.7 °C 19.9 °C 19.5 °C 0 min 0 W/m²
20:48 21.8 °C 10.9 °C 50 % 9 km/h (15 km/h) 0 mm0 mm 22.7 °C 21.7 °C 19.9 °C 19.5 °C 0 min 0 W/m²
20:42 21.9 °C 10.7 °C 49 % 8 km/h (14 km/h) 0 mm0 mm 22.7 °C 21.7 °C 19.9 °C 19.5 °C 0 min 0 W/m²
20:36 22.3 °C 11.1 °C 49 % 8 km/h (17 km/h) 0 mm0 mm 22.8 °C 21.7 °C 19.9 °C 19.5 °C 0 min 0 W/m²
20:30 22.6 °C 11 °C 48 % 11 km/h (20 km/h) 0 mm0 mm 22.8 °C 21.7 °C 19.9 °C 19.5 °C 0 min 0 W/m²
20:24 23.1 °C 10.8 °C 46 % 10 km/h (20 km/h) 0 mm0 mm 22.8 °C 21.6 °C 19.9 °C 19.5 °C 0 min 0 W/m²
20:18 23.1 °C 11.2 °C 47 % 8 km/h (15 km/h) 0 mm0 mm 22.8 °C 21.6 °C 19.9 °C 19.5 °C 0 min 0 W/m²
20:12 23.2 °C 10.9 °C 46 % 8 km/h (15 km/h) 0 mm0 mm 22.8 °C 21.6 °C 19.9 °C 19.5 °C 0 min 0 W/m²
20:06 23.4 °C 11.4 °C 47 % 7 km/h (16 km/h) 0 mm0 mm 22.9 °C 21.6 °C 19.9 °C 19.5 °C 0 min 0 W/m²
20:00 23.6 °C 11.6 °C 47 % 9 km/h (21 km/h) 0 mm0 mm 22.9 °C 21.6 °C 19.9 °C 19.5 °C 0 min 0 W/m²
19:54 23.8 °C 11.5 °C 46 % 11 km/h (21 km/h) 0 mm0 mm 22.9 °C 21.6 °C 19.9 °C 19.5 °C 0 min 0 W/m²
19:48 24 °C 11.7 °C 46 % 13 km/h (22 km/h) 0 mm0 mm 22.9 °C 21.5 °C 19.9 °C 19.5 °C 0 min 1.2 W/m²
19:42 24.2 °C 11.5 °C 45 % 14 km/h (29 km/h) 0 mm0 mm 22.9 °C 21.5 °C 19.9 °C 19.5 °C 0 min 4.4 W/m²
19:36 24.3 °C 11.3 °C 44 % 15 km/h (29 km/h) 0 mm0 mm 22.9 °C 21.5 °C 19.9 °C 19.5 °C 0 min 5.2 W/m²
19:30 24.3 °C 11.6 °C 45 % 16 km/h (24 km/h) 0 mm0 mm 22.9 °C 21.5 °C 19.9 °C 19.5 °C 0 min 6.2 W/m²
19:24 24.5 °C 11.4 °C 44 % 15 km/h (25 km/h) 0 mm0 mm 23 °C 21.5 °C 19.9 °C 19.5 °C 0 min 7.8 W/m²
19:18 24.7 °C 11.6 °C 44 % 14 km/h (25 km/h) 0 mm0 mm 23 °C 21.5 °C 19.9 °C 19.5 °C 2 min 21.1 W/m²
19:12 24.8 °C 11.7 °C 44 % 15 km/h (26 km/h) 0 mm0 mm 23 °C 21.4 °C 19.9 °C 19.5 °C 3 min 31.5 W/m²
19:06 24.9 °C 11.5 °C 43 % 15 km/h (26 km/h) 0 mm0 mm 23 °C 21.4 °C 19.9 °C 19.5 °C 0 min 11.9 W/m²
19:00 25.1 °C 10.5 °C 40 % 15 km/h (24 km/h) 0 mm0 mm 23 °C 21.4 °C 19.9 °C 19.5 °C 0 min 11.9 W/m²
18:54 25 °C 11.2 °C 42 % 16 km/h (26 km/h) 0 mm0 mm 23 °C 21.4 °C 19.9 °C 19.5 °C 0 min 13.6 W/m²
18:48 25.2 °C 11.4 °C 42 % 16 km/h (27 km/h) 0 mm0 mm 23 °C 21.4 °C 19.9 °C 19.5 °C 0 min 17.5 W/m²
18:42 25.4 °C 11.2 °C 41 % 18 km/h (34 km/h) 0 mm0 mm 23 °C 21.3 °C 19.9 °C 19.5 °C 0 min 14.1 W/m²
18:36 25.6 °C 11 °C 40 % 16 km/h (34 km/h) 0 mm0 mm 23 °C 21.3 °C 19.9 °C 19.5 °C 0 min 16.8 W/m²
18:30 25.6 °C 11.4 °C 41 % 15 km/h (26 km/h) 0 mm0 mm 22.9 °C 21.3 °C 19.9 °C 19.5 °C 0 min 17.7 W/m²
18:24 25.6 °C 11.7 °C 42 % 15 km/h (26 km/h) 0 mm0 mm 22.9 °C 21.2 °C 19.9 °C 19.5 °C 1 min 37.8 W/m²
18:18 25.6 °C 11.7 °C 42 % 16 km/h (26 km/h) 0 mm0 mm 22.9 °C 21.2 °C 19.9 °C 19.5 °C 0 min 16.1 W/m²
18:12 25.9 °C 11.6 °C 41 % 18 km/h (31 km/h) 0 mm0 mm 22.9 °C 21.2 °C 19.9 °C 19.5 °C 1 min 30.5 W/m²
18:06 26.1 °C 11.4 °C 40 % 21 km/h (35 km/h) 0 mm0 mm 22.9 °C 21.2 °C 19.9 °C 19.5 °C 3 min 70.6 W/m²
18:00 26.3 °C 11.6 °C 40 % 21 km/h (35 km/h) 0 mm0 mm 22.9 °C 21.1 °C 19.9 °C 19.5 °C 2 min 62.4 W/m²
17:54 26.6 °C 11.5 °C 39 % 20 km/h (32 km/h) 0 mm0 mm 22.8 °C 21.1 °C 19.9 °C 19.5 °C 6 min 122.9 W/m²
17:48 26.4 °C 11.3 °C 39 % 21 km/h (31 km/h) 0 mm0 mm 22.8 °C 21.1 °C 19.9 °C 19.5 °C 3 min 91.8 W/m²
17:42 26.3 °C 11.6 °C 40 % 21 km/h (33 km/h) 0 mm0 mm 22.8 °C 21.1 °C 19.9 °C 19.5 °C 2 min 84 W/m²
17:36 26.4 °C 11.3 °C 39 % 22 km/h (40 km/h) 0 mm0 mm 22.8 °C 21 °C 19.9 °C 19.5 °C 4 min 108.3 W/m²
17:30 26.2 °C 11.5 °C 40 % 22 km/h (43 km/h) 0 mm0 mm 22.7 °C 21 °C 19.9 °C 19.5 °C 1 min 52.9 W/m²
17:24 26.6 °C 11.9 °C 40 % 22 km/h (43 km/h) 0 mm0 mm 22.7 °C 20.9 °C 19.9 °C 19.5 °C 3 min 94.4 W/m²
17:18 26.6 °C 11.9 °C 40 % 21 km/h (32 km/h) 0 mm0 mm 22.6 °C 20.9 °C 19.9 °C 19.5 °C 3 min 116.6 W/m²
17:12 26.4 °C 12.1 °C 41 % 22 km/h (39 km/h) 0 mm0 mm 22.6 °C 20.9 °C 19.9 °C 19.5 °C 0 min 60.1 W/m²
17:06 26.5 °C 11.8 °C 40 % 23 km/h (39 km/h) 0 mm0 mm 22.6 °C 20.9 °C 19.9 °C 19.5 °C 2 min 88.4 W/m²
17:00 27 °C 12.2 °C 40 % 22 km/h (36 km/h) 0 mm0 mm 22.5 °C 20.8 °C 19.9 °C 19.5 °C 5 min 159.1 W/m²
16:54 27 °C 12.2 °C 40 % 20 km/h (34 km/h) 0 mm0 mm 22.5 °C 20.8 °C 19.9 °C 19.5 °C 5 min 153.2 W/m²
16:48 27 °C 13 °C 42 % 20 km/h (32 km/h) 0 mm0 mm 22.4 °C 20.8 °C 19.9 °C 19.5 °C 6 min 178.8 W/m²
16:42 26.5 °C 12.2 °C 41 % 20 km/h (32 km/h) 0 mm0 mm 22.4 °C 20.7 °C 19.9 °C 19.5 °C 2 min 120.8 W/m²
16:36 27.2 °C 12.8 °C 41 % 19 km/h (32 km/h) 0 mm0 mm 22.3 °C 20.7 °C 19.9 °C 19.5 °C 6 min 184.7 W/m²
16:30 27.2 °C 12.8 °C 41 % 20 km/h (31 km/h) 0 mm0 mm 22.3 °C 20.7 °C 19.9 °C 19.5 °C 6 min 196.2 W/m²
16:24 27 °C 12.6 °C 41 % 21 km/h (31 km/h) 0 mm0 mm 22.2 °C 20.6 °C 19.9 °C 19.5 °C 6 min 201.5 W/m²
16:18 27 °C 13.4 °C 43 % 23 km/h (37 km/h) 0 mm0 mm 22.2 °C 20.6 °C 19.9 °C 19.5 °C 6 min 207.3 W/m²
16:12 26.8 °C 12.1 °C 40 % 24 km/h (36 km/h) 0 mm0 mm 22.1 °C 20.6 °C 19.9 °C 19.5 °C 6 min 213 W/m²
16:06 27.1 °C 12.7 °C 41 % 26 km/h (41 km/h) 0 mm0 mm 22.1 °C 20.6 °C 19.9 °C 19.5 °C 6 min 219.2 W/m²
16:00 27.1 °C 11.6 °C 38 % 27 km/h (42 km/h) 0 mm0 mm 22 °C 20.5 °C 19.9 °C 19.5 °C 6 min 224.6 W/m²
15:54 27.1 °C 11.2 °C 37 % 26 km/h (41 km/h) 0 mm0 mm 22 °C 20.5 °C 19.9 °C 19.5 °C 6 min 225.5 W/m²
15:48 27 °C 11.1 °C 37 % 27 km/h (44 km/h) 0 mm0 mm 21.9 °C 20.5 °C 19.9 °C 19.5 °C 3 min 169.5 W/m²
15:42 27.3 °C 11.7 °C 38 % 22 km/h (44 km/h) 0 mm0 mm 21.8 °C 20.4 °C 19.9 °C 19.5 °C 6 min 245.6 W/m²
15:36 27.2 °C 12.8 °C 41 % 17 km/h (28 km/h) 0 mm0 mm 21.7 °C 20.4 °C 19.9 °C 19.5 °C 5 min 218.9 W/m²
15:30 27.2 °C 11.6 °C 38 % 17 km/h (32 km/h) 0 mm0 mm 21.7 °C 20.4 °C 19.9 °C 19.5 °C 6 min 235.7 W/m²
15:24 27.1 °C 11.6 °C 38 % 18 km/h (37 km/h) 0 mm0 mm 21.6 °C 20.4 °C 19.9 °C 19.5 °C 4 min 212.6 W/m²
15:18 26.8 °C 11.3 °C 38 % 21 km/h (38 km/h) 0 mm0 mm 21.5 °C 20.3 °C 19.9 °C 19.5 °C 2 min 153.3 W/m²
15:12 27.2 °C 11.2 °C 37 % 23 km/h (38 km/h) 0 mm0 mm 21.5 °C 20.3 °C 19.9 °C 19.5 °C 5 min 225.4 W/m²
15:06 27.4 °C 11 °C 36 % 23 km/h (41 km/h) 0 mm0 mm 21.4 °C 20.3 °C 19.9 °C 19.5 °C 6 min 257.1 W/m²
15:00 27.2 °C 11.2 °C 37 % 24 km/h (42 km/h) 0 mm0 mm 21.3 °C 20.3 °C 19.9 °C 19.5 °C 6 min 260.7 W/m²
14:54 27.1 °C 11.9 °C 39 % 26 km/h (42 km/h) 0 mm0 mm 21.3 °C 20.2 °C 19.9 °C 19.5 °C 6 min 266.9 W/m²
14:48 27 °C 11.1 °C 37 % 23 km/h (40 km/h) 0 mm0 mm 21.2 °C 20.2 °C 20 °C 19.5 °C 6 min 259.4 W/m²
14:42 26.9 °C 11.4 °C 38 % 22 km/h (42 km/h) 0 mm0 mm 21.1 °C 20.2 °C 20 °C 19.5 °C 1 min 132.8 W/m²
14:36 27.4 °C 11.4 °C 37 % 22 km/h (42 km/h) 0 mm0 mm 21 °C 20.2 °C 19.9 °C 19.5 °C 6 min 278.8 W/m²
14:30 27.5 °C 11.5 °C 37 % 19 km/h (33 km/h) 0 mm0 mm 21 °C 20.1 °C 20 °C 19.5 °C 6 min 278.3 W/m²
14:24 27.5 °C 11.9 °C 38 % 20 km/h (37 km/h) 0 mm0 mm 20.9 °C 20.1 °C 20 °C 19.5 °C 6 min 278.6 W/m²
14:18 27.4 °C 11.8 °C 38 % 22 km/h (38 km/h) 0 mm0 mm 20.8 °C 20.1 °C 20 °C 19.5 °C 6 min 278.2 W/m²
14:12 27.3 °C 12.5 °C 40 % 21 km/h (38 km/h) 0 mm0 mm 20.7 °C 20.1 °C 20 °C 19.5 °C 5 min 271.4 W/m²
14:06 27.6 °C 12.4 °C 39 % 19 km/h (38 km/h) 0 mm0 mm 20.7 °C 20 °C 20 °C 19.5 °C 6 min 301.4 W/m²
14:00 27.4 °C 12.6 °C 40 % 18 km/h (32 km/h) 0 mm0 mm 20.6 °C 20 °C 20 °C 19.5 °C 6 min 294.5 W/m²
13:54 27.3 °C 12.5 °C 40 % 18 km/h (32 km/h) 0 mm0 mm 20.5 °C 20 °C 20 °C 19.5 °C 6 min 284.9 W/m²
13:48 27.1 °C 12.3 °C 40 % 20 km/h (34 km/h) 0 mm0 mm 20.4 °C 20 °C 20 °C 19.5 °C 6 min 283.1 W/m²
13:42 26.8 °C 12.4 °C 41 % 19 km/h (32 km/h) 0 mm0 mm 20.4 °C 20 °C 20 °C 19.5 °C 6 min 283.6 W/m²
13:36 26.8 °C 12.8 °C 42 % 19 km/h (33 km/h) 0 mm0 mm 20.3 °C 20 °C 20 °C 19.5 °C 6 min 280.5 W/m²
13:30 26.6 °C 13 °C 43 % 19 km/h (36 km/h) 0 mm0 mm 20.2 °C 20 °C 20 °C 19.5 °C 6 min 288.8 W/m²
13:24 26.3 °C 13.4 °C 45 % 20 km/h (36 km/h) 0 mm0 mm 20.2 °C 20 °C 20 °C 19.5 °C 6 min 286.3 W/m²
13:18 26.7 °C 15.1 °C 49 % 15 km/h (29 km/h) 0 mm0 mm 20.1 °C 20 °C 20 °C 19.5 °C 6 min 293.6 W/m²
13:12 26.8 °C 15.8 °C 51 % 13 km/h (26 km/h) 0 mm0 mm 20 °C 20 °C 20 °C 19.5 °C 6 min 277.7 W/m²
13:06 26.9 °C 15.3 °C 49 % 14 km/h (26 km/h) 0 mm0 mm 20 °C 20 °C 20 °C 19.5 °C 6 min 272.8 W/m²
13:00 26.9 °C 15 °C 48 % 11 km/h (22 km/h) 0 mm0 mm 19.9 °C 19.9 °C 20 °C 19.5 °C 6 min 266 W/m²
12:54 26.5 °C 15.5 °C 51 % 12 km/h (21 km/h) 0 mm0 mm 19.8 °C 19.9 °C 20 °C 19.5 °C 6 min 262.9 W/m²
12:48 26.3 °C 15.7 °C 52 % 14 km/h (22 km/h) 0 mm0 mm 19.8 °C 19.9 °C 20 °C 19.5 °C 6 min 265 W/m²
12:42 25.8 °C 16.1 °C 55 % 12 km/h (20 km/h) 0 mm0 mm 19.7 °C 19.9 °C 20 °C 19.5 °C 6 min 265.8 W/m²
12:36 25.4 °C 16.5 °C 58 % 10 km/h (20 km/h) 0 mm0 mm 19.7 °C 19.9 °C 20 °C 19.5 °C 6 min 262.8 W/m²
12:30 24.5 °C 16.5 °C 61 % 11 km/h (18 km/h) 0 mm0 mm 19.6 °C 19.9 °C 20 °C 19.5 °C 6 min 256.4 W/m²
12:24 23.4 °C 14.7 °C 58 % 14 km/h (20 km/h) 0 mm0 mm 19.6 °C 19.9 °C 20 °C 19.5 °C 6 min 252.1 W/m²
12:18 23.3 °C 14.8 °C 59 % 14 km/h (20 km/h) 0 mm0 mm 19.5 °C 19.9 °C 20 °C 19.5 °C 6 min 250.4 W/m²
12:12 23.7 °C 14.4 °C 56 % 11 km/h (20 km/h) 0 mm0 mm 19.5 °C 19.9 °C 20 °C 19.5 °C 6 min 245.5 W/m²
12:06 24.2 °C 15.1 °C 57 % 9 km/h (16 km/h) 0 mm0 mm 19.5 °C 19.9 °C 20 °C 19.5 °C 6 min 242.9 W/m²
12:00 23.9 °C 14.9 °C 57 % 8 km/h (15 km/h) 0 mm0 mm 19.4 °C 19.9 °C 20 °C 19.5 °C 6 min 240 W/m²
11:54 24.2 °C 15.9 °C 60 % 7 km/h (13 km/h) 0 mm0 mm 19.4 °C 20 °C 20 °C 19.5 °C 6 min 235.3 W/m²
11:48 23.5 °C 15.8 °C 62 % 6 km/h (13 km/h) 0 mm0 mm 19.3 °C 20 °C 20 °C 19.5 °C 6 min 231.9 W/m²
11:42 23.4 °C 14.7 °C 58 % 8 km/h (14 km/h) 0 mm0 mm 19.3 °C 20 °C 20 °C 19.5 °C 6 min 228.9 W/m²
11:36 23.3 °C 15.1 °C 60 % 8 km/h (14 km/h) 0 mm0 mm 19.3 °C 20 °C 20 °C 19.5 °C 6 min 227.8 W/m²
11:30 22.6 °C 14.9 °C 62 % 8 km/h (13 km/h) 0 mm0 mm 19.3 °C 20 °C 20 °C 19.5 °C 6 min 224.1 W/m²
11:24 22.4 °C 14.5 °C 61 % 7 km/h (13 km/h) 0 mm0 mm 19.2 °C 20 °C 20 °C 19.5 °C 6 min 218.7 W/m²
11:18 22 °C 14.9 °C 64 % 5 km/h (11 km/h) 0 mm0 mm 19.2 °C 20 °C 20 °C 19.5 °C 6 min 215.1 W/m²
11:12 21.6 °C 14.3 °C 63 % 6 km/h (14 km/h) 0 mm0 mm 19.2 °C 20 °C 20 °C 19.5 °C 6 min 210 W/m²
11:06 21.4 °C 14.1 °C 63 % 5 km/h (14 km/h) 0 mm0 mm 19.2 °C 20 °C 20 °C 19.5 °C 5 min 197 W/m²
11:00 20.6 °C 13.8 °C 65 % 5 km/h (11 km/h) 0 mm0 mm 19.2 °C 20 °C 20 °C 19.5 °C 6 min 211.5 W/m²
10:54 20.2 °C 14.1 °C 68 % 5 km/h (11 km/h) 0 mm0 mm 19.2 °C 20 °C 20 °C 19.5 °C 3 min 134.8 W/m²
10:48 20.5 °C 14.2 °C 67 % 3 km/h (7 km/h) 0 mm0 mm 19.2 °C 20 °C 20 °C 19.5 °C 4 min 190.1 W/m²
10:42 20.3 °C 14.2 °C 68 % 4 km/h (8 km/h) 0 mm0 mm 19.1 °C 20.1 °C 20 °C 19.5 °C 2 min 146.7 W/m²
10:36 20.4 °C 14.5 °C 69 % 4 km/h (8 km/h) 0 mm0 mm 19.2 °C 20.1 °C 20 °C 19.5 °C 6 min 198.9 W/m²
10:30 19.8 °C 15.6 °C 77 % 3 km/h (8 km/h) 0 mm0 mm 19.2 °C 20.1 °C 20 °C 19.5 °C 5 min 171.7 W/m²
10:24 19 °C 14 °C 73 % 2 km/h (5 km/h) 0 mm0 mm 19.2 °C 20.1 °C 20 °C 19.5 °C 1 min 108.5 W/m²
10:18 18.8 °C 14.5 °C 76 % 4 km/h (10 km/h) 0 mm0 mm 19.2 °C 20.1 °C 20 °C 19.5 °C 3 min 139.9 W/m²
10:12 19 °C 15.1 °C 78 % 5 km/h (10 km/h) 0 mm0 mm 19.2 °C 20.2 °C 20 °C 19.5 °C 2 min 110.2 W/m²
10:06 19.1 °C 15.6 °C 80 % 4 km/h (9 km/h) 0 mm0 mm 19.2 °C 20.1 °C 20 °C 19.5 °C 4 min 157.4 W/m²
10:00 17.7 °C 14.4 °C 81 % 4 km/h (8 km/h) 0 mm0 mm 19.2 °C 20.2 °C 20 °C 19.5 °C 4 min 144 W/m²
09:54 17.2 °C 14.8 °C 86 % 4 km/h (8 km/h) 0 mm0 mm 19.2 °C 20.2 °C 20 °C 19.5 °C 6 min 162.6 W/m²
09:48 16.3 °C 14.7 °C 90 % 4 km/h (8 km/h) 0 mm0 mm 19.2 °C 20.2 °C 20 °C 19.5 °C 2 min 103.7 W/m²
09:42 16 °C 14.5 °C 91 % 4 km/h (8 km/h) 0 mm0 mm 19.2 °C 20.2 °C 20 °C 19.5 °C 0 min 49.9 W/m²
09:36 15.7 °C 14.1 °C 90 % 4 km/h (7 km/h) 0 mm0 mm 19.3 °C 20.2 °C 20 °C 19.5 °C 0 min 51.7 W/m²
09:30 15.5 °C 14.5 °C 94 % 5 km/h (10 km/h) 0 mm0 mm 19.3 °C 20.2 °C 20 °C 19.5 °C 0 min 53.8 W/m²
09:24 15.4 °C 14.4 °C 94 % 5 km/h (10 km/h) 0 mm0 mm 19.3 °C 20.3 °C 20 °C 19.5 °C 0 min 53.6 W/m²
09:18 15.4 °C 14.3 °C 93 % 4 km/h (6 km/h) 0 mm0 mm 19.3 °C 20.3 °C 20 °C 19.5 °C 0 min 37 W/m²
09:12 15.1 °C 14 °C 93 % 5 km/h (8 km/h) 0 mm0 mm 19.3 °C 20.3 °C 20 °C 19.5 °C 0 min 29.7 W/m²
09:06 14.8 °C 13.3 °C 91 % 6 km/h (9 km/h) 0 mm0 mm 19.3 °C 20.3 °C 20 °C 19.5 °C 0 min 26.6 W/m²
09:00 14.8 °C 13.7 °C 93 % 4 km/h (9 km/h) 0 mm0.2 mm 19.3 °C 20.3 °C 20 °C 19.5 °C 0 min 21.4 W/m²
08:54 14.8 °C 13.5 °C 92 % 3 km/h (6 km/h) 0 mm0 mm 19.3 °C 20.3 °C 20 °C 19.5 °C 0 min 19.2 W/m²
08:48 14.5 °C 13 °C 91 % 4 km/h (6 km/h) 0 mm0 mm 19.4 °C 20.3 °C 20 °C 19.5 °C 0 min 10.2 W/m²
08:42 14.4 °C 13.1 °C 92 % 3 km/h (5 km/h) 0 mm0 mm 19.4 °C 20.3 °C 20 °C 19.5 °C 0 min 6.4 W/m²
08:36 14.3 °C 13 °C 92 % 4 km/h (8 km/h) 0.2 mm0 mm 19.4 °C 20.4 °C 20 °C 19.5 °C 0 min 6.3 W/m²
08:30 14.5 °C 13 °C 91 % 4 km/h (8 km/h) 0 mm0 mm 19.4 °C 20.4 °C 20 °C 19.5 °C 0 min 7.2 W/m²
08:24 15.1 °C 13.6 °C 91 % 5 km/h (9 km/h) 0 mm0 mm 19.4 °C 20.4 °C 20 °C 19.5 °C 0 min 5.3 W/m²
08:18 15 °C 13 °C 88 % 6 km/h (9 km/h) 0 mm0 mm 19.4 °C 20.4 °C 20 °C 19.5 °C 0 min 4.6 W/m²
08:12 14.8 °C 13 °C 89 % 4 km/h (7 km/h) 0 mm0 mm 19.5 °C 20.4 °C 20 °C 19.5 °C 0 min 5 W/m²
08:06 14.6 °C 12.8 °C 89 % 3 km/h (6 km/h) 0 mm0 mm 19.5 °C 20.4 °C 20 °C 19.5 °C 0 min 5.5 W/m²
08:00 14.6 °C 12.6 °C 88 % 4 km/h (7 km/h) 0 mm0 mm 19.5 °C 20.4 °C 20 °C 19.5 °C 0 min 2.3 W/m²
07:54 14.9 °C 12.6 °C 86 % 2 km/h (7 km/h) 0 mm0 mm 19.5 °C 20.5 °C 20 °C 19.5 °C 0 min 0 W/m²
07:48 15 °C 12.7 °C 86 % 3 km/h (5 km/h) 0 mm0 mm 19.6 °C 20.5 °C 20 °C 19.5 °C 0 min 2.6 W/m²
07:42 15.1 °C 12.6 °C 85 % 3 km/h (4 km/h) 0 mm0 mm 19.6 °C 20.5 °C 20 °C 19.5 °C 0 min 8.3 W/m²
07:36 15.1 °C 12.6 °C 85 % 3 km/h (5 km/h) 0 mm0 mm 19.6 °C 20.5 °C 20 °C 19.5 °C 0 min 8.8 W/m²
07:30 14.9 °C 12.4 °C 85 % 4 km/h (11 km/h) 0 mm0 mm 19.6 °C 20.5 °C 20 °C 19.5 °C 0 min 7.7 W/m²
07:24 15.2 °C 12.5 °C 84 % 8 km/h (11 km/h) 0 mm0 mm 19.6 °C 20.6 °C 20 °C 19.5 °C 0 min 3.9 W/m²
07:18 15.1 °C 12.4 °C 84 % 7 km/h (11 km/h) 0 mm0 mm 19.6 °C 20.6 °C 20 °C 19.5 °C 0 min 0 W/m²
07:12 14.9 °C 12.4 °C 85 % 6 km/h (10 km/h) 0 mm0 mm 19.7 °C 20.6 °C 20 °C 19.5 °C 0 min 0 W/m²
07:06 15.1 °C 12.4 °C 84 % 6 km/h (10 km/h) 0 mm0 mm 19.7 °C 20.6 °C 20 °C 19.5 °C 0 min 0 W/m²
07:00 15.1 °C 12.4 °C 84 % 4 km/h (7 km/h) 0 mm0 mm 19.7 °C 20.6 °C 20 °C 19.5 °C 0 min 0 W/m²
06:54 15 °C 12.3 °C 84 % 5 km/h (9 km/h) 0 mm0 mm 19.8 °C 20.6 °C 20 °C 19.5 °C 0 min 0 W/m²
06:48 15.1 °C 12.2 °C 83 % 6 km/h (9 km/h) 0 mm0 mm 19.8 °C 20.6 °C 20 °C 19.5 °C 0 min 0 W/m²
06:42 15.2 °C 12.3 °C 83 % 7 km/h (10 km/h) 0 mm0 mm 19.8 °C 20.6 °C 20 °C 19.5 °C 0 min 0 W/m²
06:36 15.2 °C 12.3 °C 83 % 7 km/h (10 km/h) 0 mm0 mm 19.8 °C 20.7 °C 20 °C 19.5 °C 0 min 0 W/m²
06:30 15.1 °C 12.4 °C 84 % 6 km/h (8 km/h) 0 mm0 mm 19.9 °C 20.7 °C 20 °C 19.5 °C 0 min 0 W/m²
06:24 15 °C 12.3 °C 84 % 5 km/h (7 km/h) 0 mm0 mm 19.9 °C 20.7 °C 20 °C 19.5 °C 0 min 0 W/m²
06:18 15 °C 12.3 °C 84 % 4 km/h (7 km/h) 0 mm0 mm 19.9 °C 20.7 °C 20 °C 19.5 °C 0 min 0 W/m²
06:12 14.9 °C 12.2 °C 84 % 3 km/h (6 km/h) 0 mm0 mm 19.9 °C 20.7 °C 20 °C 19.5 °C 0 min 0 W/m²
06:06 14.9 °C 12.2 °C 84 % 5 km/h (7 km/h) 0 mm0 mm 20 °C 20.7 °C 20 °C 19.5 °C 0 min 0 W/m²
06:00 14.7 °C 12.2 °C 85 % 5 km/h (9 km/h) 0 mm0 mm 20 °C 20.8 °C 20 °C 19.5 °C 0 min 0 W/m²
05:54 14.5 °C 12.2 °C 86 % 5 km/h (10 km/h) 0 mm0 mm 20 °C 20.8 °C 20 °C 19.5 °C 0 min 0 W/m²
05:48 14.6 °C 12.1 °C 85 % 9 km/h (15 km/h) 0 mm0 mm 20 °C 20.8 °C 20 °C 19.5 °C 0 min 0 W/m²
05:42 14.6 °C 12.1 °C 85 % 12 km/h (16 km/h) 0 mm0 mm 20.1 °C 20.8 °C 20 °C 19.5 °C 0 min 0 W/m²
05:36 14.6 °C 12.1 °C 85 % 11 km/h (16 km/h) 0 mm0 mm 20.1 °C 20.8 °C 20 °C 19.5 °C 0 min 0 W/m²
05:30 14.8 °C 12.1 °C 84 % 9 km/h (13 km/h) 0 mm0 mm 20.1 °C 20.8 °C 20 °C 19.5 °C 0 min 0 W/m²
05:24 15 °C 11.9 °C 82 % 11 km/h (16 km/h) 0 mm0 mm 20.2 °C 20.8 °C 20 °C 19.5 °C 0 min 0 W/m²
05:18 15 °C 12.1 °C 83 % 11 km/h (16 km/h) 0 mm0 mm 20.2 °C 20.9 °C 20 °C 19.5 °C 0 min 0 W/m²
05:12 15.2 °C 12.1 °C 82 % 10 km/h (13 km/h) 0 mm0 mm 20.2 °C 20.9 °C 20 °C 19.5 °C 0 min 0 W/m²
05:06 15.3 °C 12.2 °C 82 % 9 km/h (12 km/h) 0 mm0 mm 20.2 °C 20.9 °C 20 °C 19.5 °C 0 min 0 W/m²
05:00 15.1 °C 12 °C 82 % 6 km/h (10 km/h) 0 mm0 mm 20.3 °C 20.9 °C 20 °C 19.5 °C 0 min 0 W/m²
04:54 15 °C 12.1 °C 83 % 6 km/h (8 km/h) 0 mm0 mm 20.3 °C 20.9 °C 20 °C 19.5 °C 0 min 0 W/m²
04:48 14.9 °C 12 °C 83 % 5 km/h (8 km/h) 0 mm0 mm 20.3 °C 20.9 °C 20 °C 19.5 °C 0 min 0 W/m²
04:42 14.7 °C 12 °C 84 % 4 km/h (7 km/h) 0 mm0 mm 20.4 °C 20.9 °C 20 °C 19.5 °C 0 min 0 W/m²
04:36 15.1 °C 12 °C 82 % 3 km/h (6 km/h) 0 mm0 mm 20.4 °C 21 °C 20 °C 19.5 °C 0 min 0 W/m²
04:30 15.6 °C 12.2 °C 80 % 5 km/h (10 km/h) 0 mm0 mm 20.4 °C 21 °C 20 °C 19.5 °C 0 min 0 W/m²
04:24 15.8 °C 12.2 °C 79 % 7 km/h (12 km/h) 0 mm0 mm 20.4 °C 21 °C 20 °C 19.5 °C 0 min 0 W/m²
04:18 15.7 °C 12.3 °C 80 % 7 km/h (12 km/h) 0 mm0 mm 20.5 °C 21 °C 20 °C 19.5 °C 0 min 0 W/m²
04:12 15.5 °C 12.1 °C 80 % 5 km/h (9 km/h) 0 mm0 mm 20.5 °C 21 °C 20 °C 19.5 °C 0 min 0 W/m²
04:06 15.6 °C 12 °C 79 % 5 km/h (9 km/h) 0 mm0 mm 20.5 °C 21 °C 20 °C 19.5 °C 0 min 0 W/m²
04:00 15.8 °C 12.2 °C 79 % 8 km/h (13 km/h) 0 mm0 mm 20.5 °C 21.1 °C 20 °C 19.5 °C 0 min 0 W/m²
03:54 15.9 °C 12.3 °C 79 % 8 km/h (13 km/h) 0 mm0 mm 20.6 °C 21.1 °C 20 °C 19.5 °C 0 min 0 W/m²
03:48 16 °C 12.2 °C 78 % 8 km/h (13 km/h) 0 mm0 mm 20.6 °C 21.1 °C 20 °C 19.5 °C 0 min 0 W/m²
03:42 16.1 °C 12.5 °C 79 % 10 km/h (15 km/h) 0 mm0 mm 20.6 °C 21.1 °C 19.9 °C 19.5 °C 0 min 0 W/m²
03:36 16 °C 12.5 °C 80 % 11 km/h (15 km/h) 0 mm0 mm 20.7 °C 21.1 °C 19.9 °C 19.5 °C 0 min 0 W/m²
03:30 15.6 °C 12.3 °C 81 % 9 km/h (14 km/h) 0 mm0 mm 20.7 °C 21.1 °C 19.9 °C 19.5 °C 0 min 0 W/m²
03:24 15.6 °C 12.2 °C 80 % 6 km/h (13 km/h) 0 mm0 mm 20.7 °C 21.1 °C 19.9 °C 19.5 °C 0 min 0 W/m²
03:18 16.6 °C 12.3 °C 76 % 8 km/h (11 km/h) 0 mm0 mm 20.8 °C 21.1 °C 19.9 °C 19.5 °C 0 min 0 W/m²
03:12 16.7 °C 12.4 °C 76 % 8 km/h (11 km/h) 0 mm0 mm 20.8 °C 21.1 °C 19.9 °C 19.5 °C 0 min 0 W/m²
03:06 16.6 °C 12.5 °C 77 % 9 km/h (12 km/h) 0 mm0 mm 20.8 °C 21.2 °C 19.9 °C 19.5 °C 0 min 0 W/m²
03:00 16.4 °C 12.6 °C 78 % 8 km/h (12 km/h) 0 mm0 mm 20.8 °C 21.2 °C 19.9 °C 19.5 °C 0 min 0 W/m²
02:54 16.1 °C 12.5 °C 79 % 3 km/h (9 km/h) 0 mm0 mm 20.9 °C 21.2 °C 19.9 °C 19.5 °C 0 min 0 W/m²
02:48 16.4 °C 12.6 °C 78 % 3 km/h (5 km/h) 0 mm0 mm 20.9 °C 21.2 °C 19.9 °C 19.5 °C 0 min 0 W/m²
02:42 16.7 °C 12.4 °C 76 % 4 km/h (8 km/h) 0 mm0 mm 20.9 °C 21.2 °C 19.9 °C 19.5 °C 0 min 0 W/m²
02:36 17 °C 12.3 °C 74 % 4 km/h (8 km/h) 0 mm0 mm 20.9 °C 21.2 °C 19.9 °C 19.5 °C 0 min 0 W/m²
02:30 16.8 °C 12.5 °C 76 % 4 km/h (7 km/h) 0 mm0 mm 21 °C 21.2 °C 19.9 °C 19.5 °C 0 min 0 W/m²
02:24 17 °C 12.7 °C 76 % 5 km/h (8 km/h) 0 mm0 mm 21 °C 21.2 °C 19.9 °C 19.5 °C 0 min 0 W/m²
02:18 16.9 °C 12.6 °C 76 % 5 km/h (8 km/h) 0 mm0 mm 21.1 °C 21.2 °C 19.9 °C 19.5 °C 0 min 0 W/m²
02:12 17.1 °C 12.6 °C 75 % 4 km/h (7 km/h) 0 mm0 mm 21.1 °C 21.3 °C 19.9 °C 19.5 °C 0 min 0 W/m²
02:06 17.5 °C 12.8 °C 74 % 6 km/h (11 km/h) 0 mm0 mm 21.1 °C 21.3 °C 19.9 °C 19.5 °C 0 min 0 W/m²
02:00 17.3 °C 13 °C 76 % 7 km/h (11 km/h) 0 mm0 mm 21.1 °C 21.3 °C 19.9 °C 19.5 °C 0 min 0 W/m²
01:54 17 °C 12.9 °C 77 % 5 km/h (9 km/h) 0 mm0 mm 21.2 °C 21.3 °C 19.9 °C 19.5 °C 0 min 0 W/m²
01:48 16.9 °C 12.8 °C 77 % 3 km/h (5 km/h) 0 mm0 mm 21.2 °C 21.3 °C 19.9 °C 19.5 °C 0 min 0 W/m²
01:42 16.8 °C 12.9 °C 78 % 2 km/h (5 km/h) 0 mm0 mm 21.2 °C 21.3 °C 19.9 °C 19.5 °C 0 min 0 W/m²
01:36 17.4 °C 13.1 °C 76 % 0 km/h (4 km/h) 0 mm0 mm 21.3 °C 21.3 °C 19.9 °C 19.5 °C 0 min 0 W/m²
01:30 17.4 °C 12.9 °C 75 % 3 km/h (6 km/h) 0 mm0 mm 21.3 °C 21.3 °C 19.9 °C 19.5 °C 0 min 0 W/m²
01:24 17.5 °C 13 °C 75 % 3 km/h (8 km/h) 0 mm0 mm 21.3 °C 21.3 °C 19.9 °C 19.5 °C 0 min 0 W/m²
01:18 17.9 °C 13 °C 73 % 4 km/h (8 km/h) 0 mm0 mm 21.3 °C 21.3 °C 19.9 °C 19.5 °C 0 min 0 W/m²
01:12 18.1 °C 13.2 °C 73 % 5 km/h (8 km/h) 0 mm0 mm 21.4 °C 21.4 °C 19.9 °C 19.5 °C 0 min 0 W/m²
01:06 18.3 °C 13.4 °C 73 % 5 km/h (8 km/h) 0 mm0 mm 21.4 °C 21.4 °C 19.9 °C 19.5 °C 0 min 0 W/m²
01:00 18.1 °C 13.4 °C 74 % 5 km/h (8 km/h) 0 mm0 mm 21.4 °C 21.4 °C 19.9 °C 19.5 °C 0 min 0 W/m²
00:54 18.1 °C 13.4 °C 74 % 4 km/h (6 km/h) 0 mm0 mm 21.4 °C 21.4 °C 19.9 °C 19.5 °C 0 min 0 W/m²
00:48 18.3 °C 13.4 °C 73 % 4 km/h (6 km/h) 0 mm0 mm 21.5 °C 21.4 °C 19.9 °C 19.5 °C 0 min 0 W/m²
00:42 18.4 °C 13.5 °C 73 % 4 km/h (8 km/h) 0 mm0 mm 21.5 °C 21.4 °C 19.8 °C 19.5 °C 0 min 0 W/m²
00:36 18.6 °C 13.7 °C 73 % 4 km/h (8 km/h) 0 mm0 mm 21.5 °C 21.4 °C 19.8 °C 19.5 °C 0 min 0 W/m²
00:30 18.8 °C 13.9 °C 73 % 3 km/h (8 km/h) 0 mm0 mm 21.6 °C 21.4 °C 19.9 °C 19.5 °C 0 min 0 W/m²
00:24 19.1 °C 13.9 °C 72 % 3 km/h (7 km/h) 0 mm0 mm 21.6 °C 21.4 °C 19.8 °C 19.5 °C 0 min 0 W/m²
00:18 19.4 °C 14 °C 71 % 5 km/h (11 km/h) 0 mm0 mm 21.6 °C 21.4 °C 19.8 °C 19.5 °C 0 min 0 W/m²
00:12 19.5 °C 14.1 °C 71 % 7 km/h (11 km/h) 0 mm0 mm 21.6 °C 21.4 °C 19.8 °C 19.5 °C 0 min 0 W/m²
00:06 19.5 °C 14.1 °C 71 % 6 km/h (11 km/h) 0 mm0 mm 21.7 °C 21.4 °C 19.8 °C 19.5 °C 0 min 0 W/m²
00:00 19.4 °C 14.2 °C 72 % 5 km/h (10 km/h) 0 mm0 mm 21.7 °C 21.4 °C 19.8 °C 19.5 °C 0 min 0 W/m²

Données via Météo-France

Relevés météo à Embrun

Cette page rassemble les observations de la station de Embrun : température, humidité, vent, précipitations et pression atmosphérique. Les graphiques facilitent le suivi de la journée, tandis que le tableau donne accès aux mesures horaires et infra-horaires disponibles.

Pour replacer ces mesures dans leur contexte, consultez la climatologie de Embrun ainsi que ses normales et records. Retrouvez aussi la carte des observations météo en temps réel.